Time;durP1;ratioP1;P1;durP2;ratioP2;P2;SDS_P1;SDS_P2;PMS_P1;PMS_P2;Temp;Humidity;BMP_temperature;BMP_pressure;BME280_temperature;BME280_humidity;BME280_pressure;Samples;Min_cycle;Max_cycle;Signal;HPM_P1;HPM_P2
2022/11/02 00:01:18;;;;;;;3.90;2.50;;;;;;;;;;5098295;28;20240;-66
2022/11/02 00:03:46;;;;;;;3.40;2.13;;;;;;;;;;5085196;28;20274;-66
2022/11/02 00:06:13;;;;;;;4.80;2.10;;;;;;;;;;5097554;28;20225;-66
2022/11/02 00:08:41;;;;;;;4.63;2.40;;;;;;;;;;5097567;28;20240;-66
2022/11/02 00:11:09;;;;;;;3.53;2.23;;;;;;;;;;5098048;28;20237;-66
2022/11/02 00:13:36;;;;;;;5.47;2.27;;;;;;;;;;5097721;28;20257;-66
2022/11/02 00:16:05;;;;;;;3.77;2.40;;;;;;;;;;5098120;28;20244;-66
2022/11/02 00:18:36;;;;;;;4.57;2.40;;;;;;;;;;5089931;28;20236;-66
2022/11/02 00:21:04;;;;;;;4.10;2.30;;;;;;;;;;5097824;28;20654;-66
2022/11/02 00:23:32;;;;;;;8.40;2.00;;;;;;;;;;5097361;28;20229;-66
2022/11/02 00:26:01;;;;;;;4.30;2.50;;;;;;;;;;5097781;28;20205;-66
2022/11/02 00:28:29;;;;;;;6.43;2.23;;;;;;;;;;5097975;28;20205;-66
2022/11/02 00:30:57;;;;;;;6.00;2.30;;;;;;;;;;5096651;28;20198;-66
2022/11/02 00:33:26;;;;;;;5.63;2.80;;;;;;;;;;5096838;28;20673;-66
2022/11/02 00:35:55;;;;;;;4.53;3.10;;;;;;;;;;5097536;28;20224;-66
2022/11/02 00:38:23;;;;;;;6.53;3.00;;;;;;;;;;5097739;28;20233;-66
2022/11/02 00:40:50;;;;;;;5.03;2.80;;;;;;;;;;5097418;28;20619;-66
2022/11/02 00:43:18;;;;;;;5.73;3.23;;;;;;;;;;5097018;28;20225;-66
2022/11/02 00:45:46;;;;;;;5.63;3.17;;;;;;;;;;5097519;28;20569;-66
2022/11/02 00:48:13;;;;;;;8.80;3.30;;;;;;;;;;5097820;28;20237;-66
2022/11/02 00:50:41;;;;;;;3.40;3.00;;;;;;;;;;5101067;28;20240;-66
2022/11/02 00:53:10;;;;;;;6.07;3.43;;;;;;;;;;5101186;28;20312;-66
2022/11/02 00:55:38;;;;;;;7.13;3.00;;;;;;;;;;5101179;28;20323;-66
2022/11/02 00:58:05;;;;;;;5.43;3.27;;;;;;;;;;5101591;28;20288;-66
2022/11/02 01:00:34;;;;;;;5.03;3.13;;;;;;;;;;5101424;28;20201;-66
2022/11/02 01:03:02;;;;;;;7.13;3.30;;;;;;;;;;5101517;28;20236;-66
2022/11/02 01:05:29;;;;;;;4.63;3.23;;;;;;;;;;5100899;28;20295;-66
2022/11/02 01:07:57;;;;;;;5.03;3.67;;;;;;;;;;5101316;28;20244;-65
2022/11/02 01:10:26;;;;;;;7.07;4.20;;;;;;;;;;5101301;28;20244;-66
2022/11/02 01:12:54;;;;;;;6.97;3.97;;;;;;;;;;5101335;28;20232;-66
2022/11/02 01:15:22;;;;;;;9.03;3.27;;;;;;;;;;5101460;28;20253;-66
2022/11/02 01:17:50;;;;;;;7.23;3.97;;;;;;;;;;5095835;28;20201;-66
2022/11/02 01:20:20;;;;;;;5.63;3.37;;;;;;;;;;5101418;28;20244;-66
2022/11/02 01:22:48;;;;;;;5.63;3.70;;;;;;;;;;5101007;28;20229;-66
2022/11/02 01:25:16;;;;;;;8.00;3.57;;;;;;;;;;5101115;28;20267;-66
2022/11/02 01:27:45;;;;;;;4.37;3.67;;;;;;;;;;5101182;28;20229;-66
2022/11/02 01:30:14;;;;;;;8.50;3.97;;;;;;;;;;5100479;28;20201;-66
2022/11/02 01:32:41;;;;;;;5.90;4.40;;;;;;;;;;5101055;28;20283;-66
2022/11/02 01:35:10;;;;;;;9.07;4.10;;;;;;;;;;5100699;28;20256;-66
2022/11/02 01:37:37;;;;;;;6.03;4.07;;;;;;;;;;5100819;28;20229;-66
2022/11/02 01:40:05;;;;;;;6.87;3.60;;;;;;;;;;5100458;28;20206;-66
2022/11/02 01:42:33;;;;;;;6.50;3.80;;;;;;;;;;5100023;28;20198;-66
2022/11/02 01:45:02;;;;;;;6.70;3.80;;;;;;;;;;5100850;28;20230;-66
2022/11/02 01:47:31;;;;;;;8.13;3.80;;;;;;;;;;5100846;28;20232;-66
2022/11/02 01:50:02;;;;;;;4.93;3.50;;;;;;;;;;5100619;28;20305;-66
2022/11/02 01:52:32;;;;;;;5.07;3.90;;;;;;;;;;5100630;28;20260;-66
2022/11/02 01:55:02;;;;;;;8.63;4.37;;;;;;;;;;5098198;28;20271;-67
2022/11/02 01:57:30;;;;;;;7.90;3.50;;;;;;;;;;5089370;28;20202;-66
2022/11/02 02:00:01;;;;;;;9.80;4.27;;;;;;;;;;5100208;28;20244;-67
2022/11/02 02:02:30;;;;;;;8.23;3.93;;;;;;;;;;5100597;28;20272;-66
2022/11/02 02:05:01;;;;;;;5.97;3.37;;;;;;;;;;5100403;28;20236;-66
2022/11/02 02:07:30;;;;;;;5.63;3.57;;;;;;;;;;5099764;28;20209;-66
2022/11/02 02:09:59;;;;;;;8.17;3.97;;;;;;;;;;5099346;28;20201;-67
2022/11/02 02:12:30;;;;;;;10.00;3.70;;;;;;;;;;5096544;28;20217;-66
2022/11/02 02:14:58;;;;;;;6.20;2.90;;;;;;;;;;5099834;28;20221;-67
2022/11/02 02:17:41;;;;;;;8.00;3.90;;;;;;;;;;5096735;28;20232;-68
2022/11/02 02:20:12;;;;;;;10.70;3.87;;;;;;;;;;5088715;28;20201;-67
2022/11/02 02:23:04;;;;;;;8.43;3.27;;;;;;;;;;5099993;28;20653;-67
2022/11/02 02:25:43;;;;;;;5.23;3.70;;;;;;;;;;5099725;28;20638;-67
2022/11/02 02:28:19;;;;;;;6.43;3.60;;;;;;;;;;5099829;28;20612;-67
2022/11/02 02:30:50;;;;;;;9.47;3.90;;;;;;;;;;5099226;28;20201;-67
2022/11/02 02:33:21;;;;;;;6.17;3.37;;;;;;;;;;5099821;28;20261;-67
2022/11/02 02:35:53;;;;;;;8.60;3.20;;;;;;;;;;5099528;28;20676;-66
2022/11/02 02:38:26;;;;;;;9.30;4.27;;;;;;;;;;5099460;28;20277;-66
2022/11/02 02:40:58;;;;;;;5.40;3.40;;;;;;;;;;5099550;28;20202;-66
2022/11/02 02:43:31;;;;;;;9.00;3.67;;;;;;;;;;5099040;28;20659;-66
2022/11/02 02:46:01;;;;;;;7.77;3.20;;;;;;;;;;5099441;28;20224;-66
2022/11/02 02:48:34;;;;;;;5.73;2.87;;;;;;;;;;5099392;28;20205;-66
2022/11/02 02:51:02;;;;;;;6.67;3.60;;;;;;;;;;5099629;28;20677;-67
2022/11/02 02:53:33;;;;;;;8.43;3.70;;;;;;;;;;5099068;28;21768;-67
2022/11/02 02:56:02;;;;;;;8.57;3.23;;;;;;;;;;5098316;28;20370;-66
2022/11/02 02:58:35;;;;;;;7.83;3.30;;;;;;;;;;5096911;28;20285;-67
2022/11/02 03:01:04;;;;;;;12.10;3.80;;;;;;;;;;5099025;28;20233;-66
2022/11/02 03:03:33;;;;;;;6.30;4.63;;;;;;;;;;5097586;28;20252;-67
2022/11/02 03:06:04;;;;;;;8.30;3.30;;;;;;;;;;5097465;28;20202;-67
2022/11/02 03:08:32;;;;;;;4.37;2.97;;;;;;;;;;5094926;28;20240;-66
2022/11/02 03:11:02;;;;;;;6.03;2.97;;;;;;;;;;5097546;28;20633;-66
2022/11/02 03:13:37;;;;;;;6.57;3.40;;;;;;;;;;5094630;28;20309;-66
2022/11/02 03:16:11;;;;;;;4.87;2.80;;;;;;;;;;5098053;28;20233;-66
2022/11/02 03:18:48;;;;;;;3.70;2.90;;;;;;;;;;5095016;28;20229;-67
2022/11/02 03:21:20;;;;;;;5.27;3.23;;;;;;;;;;5094850;28;20197;-66
2022/11/02 03:23:52;;;;;;;5.37;2.93;;;;;;;;;;5096910;28;20245;-66
2022/11/02 03:26:22;;;;;;;3.37;2.80;;;;;;;;;;5097692;28;20638;-66
2022/11/02 03:28:56;;;;;;;3.23;2.37;;;;;;;;;;5097166;28;20610;-67
2022/11/02 03:31:28;;;;;;;5.93;2.83;;;;;;;;;;5095234;28;20205;-67
2022/11/02 03:33:58;;;;;;;7.60;3.17;;;;;;;;;;5096552;28;20317;-67
2022/11/02 03:36:31;;;;;;;5.47;3.23;;;;;;;;;;5094644;28;20237;-66
2022/11/02 03:39:01;;;;;;;4.93;2.63;;;;;;;;;;5096657;28;20256;-67
2022/11/02 03:41:32;;;;;;;6.33;3.20;;;;;;;;;;5096931;28;20289;-66
2022/11/02 03:44:04;;;;;;;6.97;3.17;;;;;;;;;;5097316;28;20249;-66
2022/11/02 03:46:33;;;;;;;3.97;3.20;;;;;;;;;;5090026;28;20225;-66
2022/11/02 03:49:02;;;;;;;5.33;2.90;;;;;;;;;;5081840;28;20237;-66
2022/11/02 03:51:36;;;;;;;4.90;3.40;;;;;;;;;;5079799;28;20266;-67
2022/11/02 03:54:07;;;;;;;3.60;2.93;;;;;;;;;;5077223;28;20269;-66
2022/11/02 03:56:36;;;;;;;4.63;2.80;;;;;;;;;;5080342;28;20226;-66
2022/11/02 03:59:05;;;;;;;8.13;2.83;;;;;;;;;;5087976;28;20319;-66
2022/11/02 04:01:37;;;;;;;4.63;2.43;;;;;;;;;;5094179;28;20240;-66
2022/11/02 04:04:05;;;;;;;5.63;2.53;;;;;;;;;;5097628;28;20726;-66
2022/11/02 04:06:34;;;;;;;5.67;3.00;;;;;;;;;;5097964;28;20281;-66
2022/11/02 04:09:01;;;;;;;6.00;2.90;;;;;;;;;;5097706;28;20255;-66
2022/11/02 04:19:45;;;;;;;6.57;2.40;;;;;;;;;;5070752;28;20205;-66
2022/11/02 04:25:17;;;;;;;8.23;2.77;;;;;;;;;;5096840;28;20261;-66
2022/11/02 04:27:46;;;;;;;5.50;2.90;;;;;;;;;;5097741;28;20606;-66
2022/11/02 04:30:16;;;;;;;8.00;2.90;;;;;;;;;;5097932;28;20292;-66
2022/11/02 04:35:30;;;;;;;5.60;3.00;;;;;;;;;;5096621;28;20236;-66
2022/11/02 04:40:43;;;;;;;3.40;2.60;;;;;;;;;;5097697;28;20241;-66
2022/11/02 04:43:11;;;;;;;5.37;2.50;;;;;;;;;;5097759;28;20244;-66
2022/11/02 04:45:40;;;;;;;5.43;3.30;;;;;;;;;;5096582;28;20237;-66
2022/11/02 04:48:08;;;;;;;3.93;2.70;;;;;;;;;;5097291;28;20677;-65
2022/11/02 04:50:36;;;;;;;6.80;3.00;;;;;;;;;;5097672;28;20278;-65
2022/11/02 04:53:05;;;;;;;4.70;2.70;;;;;;;;;;5097223;28;20576;-64
2022/11/02 04:55:33;;;;;;;4.03;3.00;;;;;;;;;;5096948;28;20269;-65
2022/11/02 04:58:01;;;;;;;4.27;2.67;;;;;;;;;;5096270;28;20233;-64
2022/11/02 05:00:29;;;;;;;5.37;3.50;;;;;;;;;;5097366;28;20210;-65
2022/11/02 05:02:59;;;;;;;10.00;3.87;;;;;;;;;;5097483;28;20718;-64
2022/11/02 05:05:26;;;;;;;5.03;2.97;;;;;;;;;;5097563;28;20237;-64
2022/11/02 05:07:54;;;;;;;8.27;3.37;;;;;;;;;;5097378;28;20207;-65
2022/11/02 05:10:22;;;;;;;6.20;3.60;;;;;;;;;;5096391;28;20247;-65
2022/11/02 05:12:56;;;;;;;9.87;3.20;;;;;;;;;;5097413;28;20237;-65
2022/11/02 05:15:23;;;;;;;7.90;3.00;;;;;;;;;;5097126;28;20793;-65
2022/11/02 05:17:51;;;;;;;4.43;2.90;;;;;;;;;;5086642;28;20284;-64
2022/11/02 05:20:20;;;;;;;6.23;2.87;;;;;;;;;;5097427;28;20206;-66
2022/11/02 05:22:48;;;;;;;9.37;3.00;;;;;;;;;;5096496;28;20335;-65
2022/11/02 05:25:15;;;;;;;8.40;2.83;;;;;;;;;;5096861;28;20629;-65
2022/11/02 05:27:43;;;;;;;5.60;2.63;;;;;;;;;;5097449;28;20240;-65
2022/11/02 05:30:11;;;;;;;6.57;3.23;;;;;;;;;;5097100;28;20632;-65
2022/11/02 05:32:39;;;;;;;8.00;2.67;;;;;;;;;;5096652;28;20206;-65
2022/11/02 05:35:07;;;;;;;3.53;2.60;;;;;;;;;;5097083;28;20659;-65
2022/11/02 05:37:36;;;;;;;4.47;2.80;;;;;;;;;;5100873;28;20288;-66
2022/11/02 05:40:04;;;;;;;4.43;2.60;;;;;;;;;;5100800;28;20721;-65
2022/11/02 05:42:32;;;;;;;4.60;2.40;;;;;;;;;;5100587;28;20244;-64
2022/11/02 05:45:00;;;;;;;4.63;2.63;;;;;;;;;;5100915;28;20256;-65
2022/11/02 05:47:29;;;;;;;4.73;2.73;;;;;;;;;;5099732;28;20244;-65
2022/11/02 05:49:57;;;;;;;6.20;2.60;;;;;;;;;;5100424;28;20237;-65
2022/11/02 05:52:28;;;;;;;5.87;4.43;;;;;;;;;;5099485;28;20201;-64
2022/11/02 05:54:57;;;;;;;6.13;3.13;;;;;;;;;;5097161;28;20265;-66
2022/11/02 05:57:25;;;;;;;7.43;2.93;;;;;;;;;;5099845;28;20637;-65
2022/11/02 05:59:53;;;;;;;5.83;2.37;;;;;;;;;;5097273;28;20286;-65
2022/11/02 06:02:21;;;;;;;5.47;2.43;;;;;;;;;;5099776;28;20271;-65
2022/11/02 06:04:52;;;;;;;3.73;2.30;;;;;;;;;;5100531;28;20214;-64
2022/11/02 06:07:20;;;;;;;7.60;2.47;;;;;;;;;;5099404;28;20229;-65
2022/11/02 06:09:47;;;;;;;7.17;2.77;;;;;;;;;;5097436;28;20276;-64
2022/11/02 06:12:16;;;;;;;5.17;2.57;;;;;;;;;;5098019;28;20613;-64
2022/11/02 06:14:44;;;;;;;3.33;2.27;;;;;;;;;;5099421;28;20249;-64
2022/11/02 06:17:12;;;;;;;6.90;2.80;;;;;;;;;;5096835;28;20233;-65
2022/11/02 06:19:40;;;;;;;4.60;2.50;;;;;;;;;;5099497;28;20250;-65
2022/11/02 06:22:08;;;;;;;4.53;2.60;;;;;;;;;;5099212;28;20197;-65
2022/11/02 06:24:36;;;;;;;4.10;2.33;;;;;;;;;;5099364;28;20213;-64
2022/11/02 06:27:04;;;;;;;10.57;2.87;;;;;;;;;;5100092;28;20202;-65
2022/11/02 06:29:33;;;;;;;3.80;2.40;;;;;;;;;;5099331;28;20229;-65
2022/11/02 06:32:01;;;;;;;4.50;2.60;;;;;;;;;;5099843;28;20220;-65
2022/11/02 06:34:29;;;;;;;6.90;3.00;;;;;;;;;;5095374;28;20225;-66
2022/11/02 06:36:57;;;;;;;5.03;3.03;;;;;;;;;;5098095;28;20208;-66
2022/11/02 06:39:24;;;;;;;5.23;2.80;;;;;;;;;;5098703;28;20783;-65
2022/11/02 06:41:52;;;;;;;7.70;2.90;;;;;;;;;;5099350;28;20284;-65
2022/11/02 06:44:20;;;;;;;4.37;2.53;;;;;;;;;;5098727;28;20217;-65
2022/11/02 06:46:49;;;;;;;6.27;3.20;;;;;;;;;;5096876;28;20281;-66
2022/11/02 06:49:17;;;;;;;5.90;2.93;;;;;;;;;;5098116;28;20236;-66
2022/11/02 06:51:44;;;;;;;3.47;2.20;;;;;;;;;;5095902;28;20284;-65
2022/11/02 06:54:12;;;;;;;8.00;2.90;;;;;;;;;;5097881;28;20249;-65
2022/11/02 06:56:40;;;;;;;4.43;2.40;;;;;;;;;;5097731;28;20320;-64
2022/11/02 06:59:08;;;;;;;6.70;3.03;;;;;;;;;;5097289;28;20292;-66
2022/11/02 07:01:35;;;;;;;7.17;2.63;;;;;;;;;;5096490;28;20324;-66
2022/11/02 07:04:05;;;;;;;4.73;2.57;;;;;;;;;;5098164;28;20347;-66
2022/11/02 07:06:33;;;;;;;9.00;3.20;;;;;;;;;;5097707;28;20205;-66
2022/11/02 07:09:01;;;;;;;6.77;3.43;;;;;;;;;;5098257;28;20672;-66
2022/11/02 07:11:29;;;;;;;8.43;2.73;;;;;;;;;;5098704;28;20284;-66
2022/11/02 07:13:56;;;;;;;4.83;3.17;;;;;;;;;;5098543;28;20260;-65
2022/11/02 07:16:25;;;;;;;6.50;3.10;;;;;;;;;;5097795;28;20660;-66
2022/11/02 07:18:52;;;;;;;9.10;3.33;;;;;;;;;;5090262;28;20250;-66
2022/11/02 07:21:21;;;;;;;8.87;2.90;;;;;;;;;;5098721;28;20245;-66
2022/11/02 07:23:50;;;;;;;7.37;2.80;;;;;;;;;;5088556;28;20638;-66
2022/11/02 07:26:17;;;;;;;5.00;2.50;;;;;;;;;;5096878;28;20200;-67
2022/11/02 07:28:45;;;;;;;3.90;2.60;;;;;;;;;;5098376;28;20225;-68
2022/11/02 07:31:13;;;;;;;4.40;2.50;;;;;;;;;;5098251;28;20205;-67
2022/11/02 07:33:41;;;;;;;5.77;3.33;;;;;;;;;;5098391;28;20275;-68
2022/11/02 07:36:09;;;;;;;8.07;2.50;;;;;;;;;;5096339;28;20252;-67
2022/11/02 07:38:38;;;;;;;3.73;2.83;;;;;;;;;;5097760;28;20233;-67
2022/11/02 07:41:06;;;;;;;4.83;3.10;;;;;;;;;;5098642;28;20210;-66
2022/11/02 07:43:33;;;;;;;7.07;3.03;;;;;;;;;;5098215;28;20253;-66
2022/11/02 07:46:03;;;;;;;5.93;3.40;;;;;;;;;;5098640;28;20254;-67
2022/11/02 07:48:30;;;;;;;6.50;2.67;;;;;;;;;;5097580;28;20202;-67
2022/11/02 07:50:59;;;;;;;8.17;3.20;;;;;;;;;;5098463;28;20718;-66
2022/11/02 07:53:27;;;;;;;6.90;3.27;;;;;;;;;;5097723;28;20225;-67
2022/11/02 07:56:01;;;;;;;7.37;2.93;;;;;;;;;;5097926;28;20660;-66
2022/11/02 07:58:29;;;;;;;5.93;3.13;;;;;;;;;;5098331;28;20205;-66
2022/11/02 08:00:57;;;;;;;6.10;3.37;;;;;;;;;;5097825;28;20660;-66
2022/11/02 08:03:26;;;;;;;7.07;3.23;;;;;;;;;;5096040;28;20231;-66
2022/11/02 08:05:55;;;;;;;6.20;2.80;;;;;;;;;;5098231;28;20201;-67
2022/11/02 08:08:23;;;;;;;5.63;3.63;;;;;;;;;;5095927;28;20206;-67
2022/11/02 08:10:51;;;;;;;11.70;3.30;;;;;;;;;;5096920;28;20631;-67
2022/11/02 08:13:22;;;;;;;7.67;3.27;;;;;;;;;;5095787;28;20229;-66
2022/11/02 08:15:49;;;;;;;8.10;3.40;;;;;;;;;;5095985;28;20264;-66
2022/11/02 08:18:18;;;;;;;6.07;3.30;;;;;;;;;;5097041;28;20206;-66
2022/11/02 08:20:46;;;;;;;8.47;3.43;;;;;;;;;;5097094;28;20270;-67
2022/11/02 08:23:15;;;;;;;9.53;3.77;;;;;;;;;;5092434;28;20201;-66
2022/11/02 08:25:44;;;;;;;5.37;3.80;;;;;;;;;;5096186;28;20236;-66
2022/11/02 08:28:13;;;;;;;7.87;3.30;;;;;;;;;;5096449;28;20223;-66
2022/11/02 08:30:42;;;;;;;14.00;5.03;;;;;;;;;;5094565;28;20197;-66
2022/11/02 08:33:12;;;;;;;9.27;6.07;;;;;;;;;;5096615;28;20627;-67
2022/11/02 08:35:40;;;;;;;15.40;7.10;;;;;;;;;;5094682;28;20220;-66
2022/11/02 08:38:08;;;;;;;21.37;12.53;;;;;;;;;;5097010;28;20201;-65
2022/11/02 08:40:36;;;;;;;10.97;6.40;;;;;;;;;;5096785;28;20288;-65
2022/11/02 08:43:04;;;;;;;10.93;6.67;;;;;;;;;;5096095;28;20278;-66
2022/11/02 08:45:33;;;;;;;9.17;6.67;;;;;;;;;;5096589;28;20235;-65
2022/11/02 08:48:22;;;;;;;6.57;5.63;;;;;;;;;;5097360;28;20292;-66
2022/11/02 08:50:49;;;;;;;11.87;6.90;;;;;;;;;;5097398;28;20270;-65
2022/11/02 08:53:17;;;;;;;11.53;5.77;;;;;;;;;;5096345;28;20236;-66
2022/11/02 08:55:45;;;;;;;11.30;6.07;;;;;;;;;;5094645;28;20255;-65
2022/11/02 08:58:12;;;;;;;8.83;6.20;;;;;;;;;;5097371;28;20225;-65
2022/11/02 09:00:40;;;;;;;11.27;6.73;;;;;;;;;;5096152;28;20197;-66
2022/11/02 09:03:09;;;;;;;10.47;5.73;;;;;;;;;;5091201;28;20225;-65
2022/11/02 09:05:39;;;;;;;9.27;6.37;;;;;;;;;;5094146;28;20247;-65
2022/11/02 09:08:09;;;;;;;11.20;6.30;;;;;;;;;;5096488;28;20221;-65
2022/11/02 09:10:37;;;;;;;11.60;6.33;;;;;;;;;;5099382;28;20212;-65
2022/11/02 09:13:06;;;;;;;14.67;7.43;;;;;;;;;;5102040;28;20284;-65
2022/11/02 09:15:36;;;;;;;12.47;7.23;;;;;;;;;;5101041;28;20201;-65
2022/11/02 09:18:04;;;;;;;12.23;7.53;;;;;;;;;;5098687;28;20297;-65
2022/11/02 09:20:32;;;;;;;8.30;6.50;;;;;;;;;;5100927;28;20198;-66
2022/11/02 09:23:02;;;;;;;12.57;7.83;;;;;;;;;;5099313;28;20650;-66
2022/11/02 09:25:29;;;;;;;12.20;7.00;;;;;;;;;;5100917;28;20201;-64
2022/11/02 09:28:00;;;;;;;12.20;7.17;;;;;;;;;;5094184;28;20217;-64
2022/11/02 09:30:28;;;;;;;12.23;7.47;;;;;;;;;;5098567;28;20227;-64
2022/11/02 09:32:56;;;;;;;15.27;7.27;;;;;;;;;;5102046;28;20235;-65
2022/11/02 09:35:24;;;;;;;10.93;7.43;;;;;;;;;;5106154;28;20592;-65
2022/11/02 09:37:52;;;;;;;15.63;8.57;;;;;;;;;;5102219;28;20217;-65
2022/11/02 09:40:22;;;;;;;16.00;8.03;;;;;;;;;;5099926;28;20244;-65
2022/11/02 09:42:55;;;;;;;12.70;7.90;;;;;;;;;;5100306;28;20236;-64
2022/11/02 09:45:23;;;;;;;10.93;8.10;;;;;;;;;;5096851;28;20573;-65
2022/11/02 09:47:59;;;;;;;14.33;8.03;;;;;;;;;;5099223;28;20194;-64
2022/11/02 09:50:48;;;;;;;13.57;7.70;;;;;;;;;;5088146;28;20235;-65
2022/11/02 09:53:19;;;;;;;17.10;8.23;;;;;;;;;;5099459;28;20200;-64
2022/11/02 09:55:50;;;;;;;13.33;7.87;;;;;;;;;;5097417;28;20256;-64
2022/11/02 09:58:20;;;;;;;12.17;8.37;;;;;;;;;;5100171;28;20198;-66
2022/11/02 10:00:49;;;;;;;12.77;8.00;;;;;;;;;;5095432;28;20236;-64
2022/11/02 10:03:20;;;;;;;13.40;8.70;;;;;;;;;;5093335;28;20229;-67
2022/11/02 10:05:53;;;;;;;12.63;7.97;;;;;;;;;;5103431;28;20229;-67
2022/11/02 10:08:26;;;;;;;15.87;8.70;;;;;;;;;;5088197;28;20233;-66
2022/11/02 10:11:03;;;;;;;16.07;9.30;;;;;;;;;;5097078;28;20232;-66
2022/11/02 10:13:38;;;;;;;21.83;9.67;;;;;;;;;;5096392;28;20246;-65
2022/11/02 10:16:07;;;;;;;16.10;8.87;;;;;;;;;;5100099;28;20284;-65
2022/11/02 10:18:36;;;;;;;14.97;9.33;;;;;;;;;;5099437;28;20231;-65
2022/11/02 10:21:06;;;;;;;17.40;9.50;;;;;;;;;;5095676;28;20653;-65
2022/11/02 10:23:35;;;;;;;14.60;9.23;;;;;;;;;;5098469;28;20249;-65
2022/11/02 10:26:04;;;;;;;17.13;8.33;;;;;;;;;;5099399;28;20542;-65
2022/11/02 10:28:34;;;;;;;14.70;8.53;;;;;;;;;;5092253;28;20197;-65
2022/11/02 10:31:02;;;;;;;14.87;9.33;;;;;;;;;;5093057;28;20209;-64
2022/11/02 10:33:30;;;;;;;19.63;8.73;;;;;;;;;;5090324;28;21266;-65
2022/11/02 10:36:15;;;;;;;12.10;7.73;;;;;;;;;;5092205;28;20206;-66
2022/11/02 10:38:52;;;;;;;17.03;7.50;;;;;;;;;;5092940;28;20193;-64
2022/11/02 10:41:33;;;;;;;10.67;6.93;;;;;;;;;;5090258;28;20200;-66
2022/11/02 10:44:06;;;;;;;12.00;7.13;;;;;;;;;;5089478;28;20692;-67
2022/11/02 10:46:49;;;;;;;8.53;5.90;;;;;;;;;;5092275;28;20209;-66
2022/11/02 10:49:21;;;;;;;10.30;5.77;;;;;;;;;;5090820;28;20273;-66
2022/11/02 10:51:49;;;;;;;10.63;5.90;;;;;;;;;;5087776;28;20280;-67
2022/11/02 10:54:17;;;;;;;8.37;4.80;;;;;;;;;;5088775;28;20225;-66
2022/11/02 10:57:01;;;;;;;6.87;4.33;;;;;;;;;;5089167;28;20291;-66
2022/11/02 10:59:32;;;;;;;6.53;3.47;;;;;;;;;;5089084;28;20656;-66
2022/11/02 11:02:10;;;;;;;10.70;3.10;;;;;;;;;;5089139;28;20230;-67
2022/11/02 11:04:38;;;;;;;4.47;3.53;;;;;;;;;;5086428;28;20263;-66
2022/11/02 11:07:07;;;;;;;8.80;4.63;;;;;;;;;;5086359;28;20258;-67
2022/11/02 11:09:37;;;;;;;5.17;3.13;;;;;;;;;;5094447;28;20656;-66
2022/11/02 11:12:19;;;;;;;4.83;2.90;;;;;;;;;;5095094;28;20201;-66
2022/11/02 11:14:48;;;;;;;6.23;3.53;;;;;;;;;;5097140;28;20225;-67
2022/11/02 11:17:37;;;;;;;8.43;3.13;;;;;;;;;;5095423;28;20228;-68
2022/11/02 11:20:30;;;;;;;5.00;3.10;;;;;;;;;;5095736;28;20205;-65
2022/11/02 11:23:08;;;;;;;4.37;2.43;;;;;;;;;;5096778;28;20225;-66
2022/11/02 11:25:41;;;;;;;4.80;3.43;;;;;;;;;;5096939;28;20245;-65
2022/11/02 11:28:21;;;;;;;5.03;3.50;;;;;;;;;;5091724;28;20654;-65
2022/11/02 11:31:00;;;;;;;5.80;3.40;;;;;;;;;;5096265;28;20233;-65
2022/11/02 11:33:29;;;;;;;3.40;3.07;;;;;;;;;;5096927;28;20218;-65
2022/11/02 11:35:57;;;;;;;4.77;2.73;;;;;;;;;;5096700;28;20234;-65
2022/11/02 11:38:26;;;;;;;6.57;2.70;;;;;;;;;;5093013;28;20306;-65
2022/11/02 11:40:55;;;;;;;5.20;2.43;;;;;;;;;;5087931;28;20252;-64
2022/11/02 11:43:26;;;;;;;6.27;3.10;;;;;;;;;;5097164;28;20251;-65
2022/11/02 11:45:55;;;;;;;6.80;2.27;;;;;;;;;;5095624;28;20202;-65
2022/11/02 11:48:34;;;;;;;3.80;1.70;;;;;;;;;;5097100;28;20285;-64
2022/11/02 11:51:02;;;;;;;4.93;1.83;;;;;;;;;;5096841;28;20224;-64
2022/11/02 11:53:30;;;;;;;3.57;1.70;;;;;;;;;;5095954;28;20256;-64
2022/11/02 11:55:59;;;;;;;2.30;1.90;;;;;;;;;;5094495;28;20253;-64
2022/11/02 11:58:28;;;;;;;3.30;1.40;;;;;;;;;;5096939;28;20328;-64
2022/11/02 12:01:04;;;;;;;4.90;1.70;;;;;;;;;;5089692;28;20229;-65
2022/11/02 12:03:49;;;;;;;8.07;2.20;;;;;;;;;;5096089;28;20289;-64
2022/11/02 12:06:21;;;;;;;5.33;2.20;;;;;;;;;;5095265;28;20201;-63
2022/11/02 12:08:53;;;;;;;6.33;1.30;;;;;;;;;;5091142;28;20698;-63
2022/11/02 12:11:28;;;;;;;4.03;1.57;;;;;;;;;;5096885;28;20202;-63
2022/11/02 12:14:04;;;;;;;2.43;1.37;;;;;;;;;;5097061;28;20223;-63
2022/11/02 12:16:38;;;;;;;2.50;1.40;;;;;;;;;;5096867;28;20247;-63
2022/11/02 12:19:10;;;;;;;4.33;1.30;;;;;;;;;;5096036;28;20680;-64
2022/11/02 12:21:42;;;;;;;3.33;1.33;;;;;;;;;;5097904;28;20236;-63
2022/11/02 12:24:24;;;;;;;2.23;1.23;;;;;;;;;;5094001;28;20283;-63
2022/11/02 12:27:04;;;;;;;2.37;1.50;;;;;;;;;;5093158;28;20284;-63
2022/11/02 12:29:41;;;;;;;4.07;1.90;;;;;;;;;;5096360;28;20240;-63
2022/11/02 12:32:13;;;;;;;5.20;1.70;;;;;;;;;;5096531;28;20232;-63
2022/11/02 12:34:49;;;;;;;2.93;1.40;;;;;;;;;;5096949;28;20255;-63
2022/11/02 12:37:45;;;;;;;5.87;1.23;;;;;;;;;;5094808;28;20225;-63
2022/11/02 12:40:22;;;;;;;4.10;1.20;;;;;;;;;;5096009;28;20597;-64
2022/11/02 12:42:53;;;;;;;3.83;1.50;;;;;;;;;;5097253;28;20205;-64
2022/11/02 12:45:25;;;;;;;2.37;1.30;;;;;;;;;;5096285;28;20682;-64
2022/11/02 12:47:55;;;;;;;8.17;2.10;;;;;;;;;;5099832;28;20193;-64
2022/11/02 12:50:29;;;;;;;2.90;1.57;;;;;;;;;;5099933;28;20201;-63
2022/11/02 12:53:04;;;;;;;4.67;1.73;;;;;;;;;;5100122;28;20236;-63
2022/11/02 12:55:33;;;;;;;3.30;1.47;;;;;;;;;;5101231;28;20258;-63
2022/11/02 12:58:07;;;;;;;3.00;1.30;;;;;;;;;;5100899;28;20279;-63
2022/11/02 13:00:39;;;;;;;3.23;1.60;;;;;;;;;;5101639;28;20202;-63
2022/11/02 13:03:14;;;;;;;3.83;1.40;;;;;;;;;;5098520;28;20205;-64
2022/11/02 13:05:45;;;;;;;5.73;1.93;;;;;;;;;;5098651;28;20201;-64
2022/11/02 13:08:16;;;;;;;4.33;1.73;;;;;;;;;;5099243;28;20230;-63
2022/11/02 13:10:45;;;;;;;4.07;1.73;;;;;;;;;;5098984;28;20236;-64
2022/11/02 13:13:23;;;;;;;4.10;1.73;;;;;;;;;;5097584;28;20839;-64
2022/11/02 13:15:53;;;;;;;4.87;1.63;;;;;;;;;;5099574;28;20234;-64
2022/11/02 13:18:24;;;;;;;2.23;1.40;;;;;;;;;;5099864;28;20245;-64
2022/11/02 13:20:53;;;;;;;5.17;1.70;;;;;;;;;;5097711;28;20699;-64
2022/11/02 13:23:25;;;;;;;6.63;1.30;;;;;;;;;;5099509;28;20298;-64
2022/11/02 13:25:56;;;;;;;3.80;1.43;;;;;;;;;;5094175;28;20197;-64
2022/11/02 13:28:28;;;;;;;4.43;1.50;;;;;;;;;;5098791;28;20292;-64
2022/11/02 13:30:57;;;;;;;4.97;1.77;;;;;;;;;;5101027;28;20231;-64
2022/11/02 13:33:26;;;;;;;2.47;1.57;;;;;;;;;;5099856;28;20228;-65
2022/11/02 13:35:54;;;;;;;2.00;1.40;;;;;;;;;;5100328;28;20700;-64
2022/11/02 13:38:27;;;;;;;5.03;1.77;;;;;;;;;;5099407;28;20282;-64
2022/11/02 13:41:01;;;;;;;5.70;1.90;;;;;;;;;;5099558;28;20244;-64
2022/11/02 13:43:50;;;;;;;4.27;1.40;;;;;;;;;;5096939;28;20304;-64
2022/11/02 13:46:27;;;;;;;3.53;1.60;;;;;;;;;;5094586;28;20236;-64
2022/11/02 13:48:59;;;;;;;3.13;1.37;;;;;;;;;;5099803;28;20240;-64
2022/11/02 13:51:30;;;;;;;5.13;1.40;;;;;;;;;;5099697;28;20568;-64
2022/11/02 13:54:00;;;;;;;5.27;1.50;;;;;;;;;;5087195;28;20769;-64
2022/11/02 13:56:29;;;;;;;4.37;1.30;;;;;;;;;;5098005;28;20257;-65
2022/11/02 13:58:59;;;;;;;6.40;1.57;;;;;;;;;;5099456;28;20263;-65
2022/11/02 14:01:30;;;;;;;7.50;1.80;;;;;;;;;;5099653;28;20272;-65
2022/11/02 14:04:01;;;;;;;6.63;1.97;;;;;;;;;;5099613;28;20269;-64
2022/11/02 14:06:30;;;;;;;3.70;1.40;;;;;;;;;;5098971;28;20236;-65
2022/11/02 14:08:59;;;;;;;3.50;1.30;;;;;;;;;;5097779;28;20229;-65
2022/11/02 14:11:34;;;;;;;2.20;1.50;;;;;;;;;;5098575;28;20281;-65
2022/11/02 14:14:16;;;;;;;3.33;1.47;;;;;;;;;;5097450;28;20260;-64
2022/11/02 14:16:46;;;;;;;2.70;1.50;;;;;;;;;;5098805;28;20212;-65
2022/11/02 14:19:21;;;;;;;5.40;1.60;;;;;;;;;;5098980;28;20668;-65
2022/11/02 14:22:07;;;;;;;2.50;1.30;;;;;;;;;;5099044;28;20229;-64
2022/11/02 14:24:53;;;;;;;4.60;1.77;;;;;;;;;;5097964;28;20249;-65
2022/11/02 14:27:28;;;;;;;3.80;1.53;;;;;;;;;;5098906;28;20229;-65
2022/11/02 14:29:56;;;;;;;2.10;1.23;;;;;;;;;;5098198;28;20231;-65
2022/11/02 14:32:39;;;;;;;4.37;1.50;;;;;;;;;;5095545;28;20636;-65
2022/11/02 14:35:14;;;;;;;3.03;1.33;;;;;;;;;;5096727;28;20225;-65
2022/11/02 14:37:50;;;;;;;4.00;1.40;;;;;;;;;;5098098;28;20235;-65
2022/11/02 14:40:24;;;;;;;5.13;1.73;;;;;;;;;;5098407;28;20225;-65
2022/11/02 14:43:02;;;;;;;2.37;1.20;;;;;;;;;;5097838;28;20198;-65
2022/11/02 14:45:35;;;;;;;5.27;1.47;;;;;;;;;;5097450;28;20197;-65
2022/11/02 14:48:04;;;;;;;2.77;1.20;;;;;;;;;;5098573;28;20259;-65
2022/11/02 14:50:33;;;;;;;2.90;1.60;;;;;;;;;;5099486;28;20669;-65
2022/11/02 14:53:04;;;;;;;4.00;1.40;;;;;;;;;;5097235;28;20228;-65
2022/11/02 14:55:33;;;;;;;3.07;1.30;;;;;;;;;;5098275;28;20235;-65
2022/11/02 14:58:02;;;;;;;4.73;1.63;;;;;;;;;;5098047;28;20232;-65
2022/11/02 15:00:38;;;;;;;2.93;1.40;;;;;;;;;;5098679;28;20225;-65
2022/11/02 15:03:12;;;;;;;2.10;1.23;;;;;;;;;;5097953;28;20226;-65
2022/11/02 15:05:42;;;;;;;3.27;1.57;;;;;;;;;;5098119;28;20236;-65
2022/11/02 15:08:20;;;;;;;1.30;1.07;;;;;;;;;;5096935;28;20243;-65
2022/11/02 15:10:48;;;;;;;3.37;1.50;;;;;;;;;;5098244;28;20647;-65
2022/11/02 15:13:23;;;;;;;1.57;1.07;;;;;;;;;;5098236;28;20236;-65
2022/11/02 15:16:05;;;;;;;3.00;1.00;;;;;;;;;;5096871;28;20304;-65
2022/11/02 15:18:35;;;;;;;3.40;1.20;;;;;;;;;;5096330;28;20227;-65